sensor_id;sensor_type;location;lat;lon;timestamp;pressure;altitude;pressure_sealevel;temperature;humidity
33153;BME280;19509;43.862;26.176;2023-07-08T00:01:55;100670.94;;;19.38;98.65
33153;BME280;19509;43.862;26.176;2023-07-08T00:04:21;100669.59;;;19.46;98.36
33153;BME280;19509;43.862;26.176;2023-07-08T00:06:47;100670.66;;;19.35;97.87
33153;BME280;19509;43.862;26.176;2023-07-08T00:09:13;100660.84;;;19.39;97.91
33153;BME280;19509;43.862;26.176;2023-07-08T00:11:39;100655.94;;;19.41;97.34
33153;BME280;19509;43.862;26.176;2023-07-08T00:14:04;100669.03;;;19.39;96.68
33153;BME280;19509;43.862;26.176;2023-07-08T00:16:30;100680.53;;;19.46;96.63
33153;BME280;19509;43.862;26.176;2023-07-08T00:18:55;100684.34;;;19.45;96.66
33153;BME280;19509;43.862;26.176;2023-07-08T00:21:21;100681.09;;;19.43;97.14
33153;BME280;19509;43.862;26.176;2023-07-08T00:23:48;100682.47;;;19.51;96.32
33153;BME280;19509;43.862;26.176;2023-07-08T00:28:43;100687.41;;;19.54;96.97
33153;BME280;19509;43.862;26.176;2023-07-08T00:31:10;100678.75;;;19.67;96.44
33153;BME280;19509;43.862;26.176;2023-07-08T00:33:35;100674.91;;;19.68;96.65
33153;BME280;19509;43.862;26.176;2023-07-08T00:36:01;100682.81;;;19.70;96.97
33153;BME280;19509;43.862;26.176;2023-07-08T00:38:27;100682.81;;;19.65;96.44
33153;BME280;19509;43.862;26.176;2023-07-08T00:43:52;100689.66;;;19.72;96.62
33153;BME280;19509;43.862;26.176;2023-07-08T00:46:25;100683.31;;;19.61;97.57
33153;BME280;19509;43.862;26.176;2023-07-08T00:49:26;100686.94;;;19.67;97.49
33153;BME280;19509;43.862;26.176;2023-07-08T00:51:53;100675.66;;;19.58;98.04
33153;BME280;19509;43.862;26.176;2023-07-08T00:54:20;100676.47;;;19.54;98.30
33153;BME280;19509;43.862;26.176;2023-07-08T00:57:01;100670.47;;;19.57;97.71
33153;BME280;19509;43.862;26.176;2023-07-08T00:59:31;100666.13;;;19.61;98.10
33153;BME280;19509;43.862;26.176;2023-07-08T01:02:00;100652.19;;;19.57;98.12
33153;BME280;19509;43.862;26.176;2023-07-08T01:06:58;100661.72;;;19.55;97.46
33153;BME280;19509;43.862;26.176;2023-07-08T01:09:30;100669.09;;;19.54;97.10
33153;BME280;19509;43.862;26.176;2023-07-08T01:11:58;100677.53;;;19.53;98.07
33153;BME280;19509;43.862;26.176;2023-07-08T01:14:30;100676.75;;;19.57;97.99
33153;BME280;19509;43.862;26.176;2023-07-08T01:16:57;100669.72;;;19.72;95.99
33153;BME280;19509;43.862;26.176;2023-07-08T01:19:22;100669.19;;;19.75;96.29
33153;BME280;19509;43.862;26.176;2023-07-08T01:24:25;100662.13;;;19.84;96.34
33153;BME280;19509;43.862;26.176;2023-07-08T01:26:51;100657.72;;;19.73;97.22
33153;BME280;19509;43.862;26.176;2023-07-08T01:29:17;100641.06;;;19.74;97.27
33153;BME280;19509;43.862;26.176;2023-07-08T01:31:43;100665.81;;;19.52;98.28
33153;BME280;19509;43.862;26.176;2023-07-08T01:34:14;100669.59;;;19.46;99.20
33153;BME280;19509;43.862;26.176;2023-07-08T01:36:47;100672.13;;;19.58;99.56
33153;BME280;19509;43.862;26.176;2023-07-08T01:39:18;100671.00;;;19.59;98.56
33153;BME280;19509;43.862;26.176;2023-07-08T01:41:45;100669.41;;;19.63;98.44
33153;BME280;19509;43.862;26.176;2023-07-08T01:44:37;100676.00;;;19.67;98.25
33153;BME280;19509;43.862;26.176;2023-07-08T01:47:04;100683.09;;;19.73;98.28
33153;BME280;19509;43.862;26.176;2023-07-08T01:49:33;100683.09;;;19.73;98.34
33153;BME280;19509;43.862;26.176;2023-07-08T01:52:01;100694.34;;;19.77;98.12
33153;BME280;19509;43.862;26.176;2023-07-08T01:54:27;100695.69;;;19.74;98.52
33153;BME280;19509;43.862;26.176;2023-07-08T01:56:57;100684.47;;;19.71;98.42
33153;BME280;19509;43.862;26.176;2023-07-08T01:59:23;100694.00;;;19.73;97.93
33153;BME280;19509;43.862;26.176;2023-07-08T02:01:48;100704.66;;;19.70;98.65
33153;BME280;19509;43.862;26.176;2023-07-08T02:04:20;100702.78;;;19.70;98.83
33153;BME280;19509;43.862;26.176;2023-07-08T02:06:51;100709.84;;;19.66;98.92
33153;BME280;19509;43.862;26.176;2023-07-08T02:09:17;100709.03;;;19.66;99.27
33153;BME280;19509;43.862;26.176;2023-07-08T02:11:43;100710.94;;;19.65;99.59
33153;BME280;19509;43.862;26.176;2023-07-08T02:14:08;100716.72;;;19.74;99.52
33153;BME280;19509;43.862;26.176;2023-07-08T02:16:33;100721.34;;;19.78;99.04
33153;BME280;19509;43.862;26.176;2023-07-08T02:18:59;100720.78;;;19.76;99.02
33153;BME280;19509;43.862;26.176;2023-07-08T02:21:25;100731.72;;;19.76;99.41
33153;BME280;19509;43.862;26.176;2023-07-08T02:23:51;100737.75;;;19.78;99.09
33153;BME280;19509;43.862;26.176;2023-07-08T02:26:17;100740.44;;;19.73;99.61
33153;BME280;19509;43.862;26.176;2023-07-08T02:28:43;100745.66;;;19.80;98.97
33153;BME280;19509;43.862;26.176;2023-07-08T02:31:08;100742.41;;;19.88;99.02
33153;BME280;19509;43.862;26.176;2023-07-08T02:33:33;100725.72;;;19.79;99.21
33153;BME280;19509;43.862;26.176;2023-07-08T02:36:00;100731.59;;;19.56;100.00
33153;BME280;19509;43.862;26.176;2023-07-08T02:38:26;100747.16;;;19.55;100.00
33153;BME280;19509;43.862;26.176;2023-07-08T02:40:51;100748.75;;;19.46;100.00
33153;BME280;19509;43.862;26.176;2023-07-08T02:43:17;100743.06;;;19.53;100.00
33153;BME280;19509;43.862;26.176;2023-07-08T02:45:43;100743.38;;;19.61;100.00
33153;BME280;19509;43.862;26.176;2023-07-08T02:48:08;100753.00;;;19.69;100.00
33153;BME280;19509;43.862;26.176;2023-07-08T02:50:33;100751.31;;;19.63;100.00
33153;BME280;19509;43.862;26.176;2023-07-08T02:52:59;100749.47;;;19.74;99.50
33153;BME280;19509;43.862;26.176;2023-07-08T02:55:25;100744.25;;;19.72;99.86
33153;BME280;19509;43.862;26.176;2023-07-08T02:57:50;100747.00;;;19.67;100.00
33153;BME280;19509;43.862;26.176;2023-07-08T03:00:16;100736.06;;;19.72;100.00
33153;BME280;19509;43.862;26.176;2023-07-08T03:02:41;100726.81;;;19.78;100.00
33153;BME280;19509;43.862;26.176;2023-07-08T03:05:07;100724.66;;;19.80;100.00
33153;BME280;19509;43.862;26.176;2023-07-08T03:07:33;100723.00;;;19.79;100.00
33153;BME280;19509;43.862;26.176;2023-07-08T03:09:59;100723.56;;;19.87;100.00
33153;BME280;19509;43.862;26.176;2023-07-08T03:12:24;100721.09;;;19.85;100.00
33153;BME280;19509;43.862;26.176;2023-07-08T03:14:50;100724.44;;;19.97;100.00
33153;BME280;19509;43.862;26.176;2023-07-08T03:17:15;100731.25;;;20.05;100.00
33153;BME280;19509;43.862;26.176;2023-07-08T03:19:41;100716.81;;;20.20;99.42
33153;BME280;19509;43.862;26.176;2023-07-08T03:22:07;100720.63;;;20.24;99.12
33153;BME280;19509;43.862;26.176;2023-07-08T03:24:33;100724.16;;;20.24;98.45
33153;BME280;19509;43.862;26.176;2023-07-08T03:26:59;100731.00;;;20.17;98.40
33153;BME280;19509;43.862;26.176;2023-07-08T03:29:30;100729.38;;;20.16;98.82
33153;BME280;19509;43.862;26.176;2023-07-08T03:31:55;100728.00;;;20.18;99.20
33153;BME280;19509;43.862;26.176;2023-07-08T03:34:21;100733.75;;;20.22;98.70
33153;BME280;19509;43.862;26.176;2023-07-08T03:36:50;100720.63;;;20.24;99.22
33153;BME280;19509;43.862;26.176;2023-07-08T03:39:22;100725.28;;;20.28;99.01
33153;BME280;19509;43.862;26.176;2023-07-08T03:41:48;100725.28;;;20.23;99.13
33153;BME280;19509;43.862;26.176;2023-07-08T03:44:15;100734.81;;;20.21;99.47
33153;BME280;19509;43.862;26.176;2023-07-08T03:46:44;100733.47;;;20.33;98.94
33153;BME280;19509;43.862;26.176;2023-07-08T03:49:11;100732.69;;;20.38;98.95
33153;BME280;19509;43.862;26.176;2023-07-08T03:51:38;100737.31;;;20.43;98.34
33153;BME280;19509;43.862;26.176;2023-07-08T03:54:05;100735.41;;;20.43;97.96
33153;BME280;19509;43.862;26.176;2023-07-08T03:56:32;100738.97;;;20.39;97.41
33153;BME280;19509;43.862;26.176;2023-07-08T03:58:58;100733.25;;;20.50;97.74
33153;BME280;19509;43.862;26.176;2023-07-08T04:01:24;100730.00;;;20.59;97.43
33153;BME280;19509;43.862;26.176;2023-07-08T04:03:52;100733.53;;;20.64;97.81
33153;BME280;19509;43.862;26.176;2023-07-08T04:06:18;100726.97;;;20.75;97.74
33153;BME280;19509;43.862;26.176;2023-07-08T04:08:44;100729.44;;;20.92;96.19
33153;BME280;19509;43.862;26.176;2023-07-08T04:11:16;100730.47;;;21.01;95.62
33153;BME280;19509;43.862;26.176;2023-07-08T04:13:42;100730.75;;;21.10;95.17
33153;BME280;19509;43.862;26.176;2023-07-08T04:16:14;100738.38;;;21.23;94.81
33153;BME280;19509;43.862;26.176;2023-07-08T04:18:42;100744.91;;;21.43;93.97
33153;BME280;19509;43.862;26.176;2023-07-08T04:21:07;100737.22;;;21.50;93.13
33153;BME280;19509;43.862;26.176;2023-07-08T04:23:33;100736.09;;;21.56;92.76
33153;BME280;19509;43.862;26.176;2023-07-08T04:25:59;100739.41;;;21.53;92.39
33153;BME280;19509;43.862;26.176;2023-07-08T04:28:25;100742.69;;;21.55;92.12
33153;BME280;19509;43.862;26.176;2023-07-08T04:30:50;100749.25;;;21.59;91.96
33153;BME280;19509;43.862;26.176;2023-07-08T04:33:16;100744.78;;;21.73;91.37
33153;BME280;19509;43.862;26.176;2023-07-08T04:35:43;100742.91;;;21.74;90.39
33153;BME280;19509;43.862;26.176;2023-07-08T04:38:18;100738.75;;;21.77;91.06
33153;BME280;19509;43.862;26.176;2023-07-08T04:40:44;100737.38;;;21.79;91.43
33153;BME280;19509;43.862;26.176;2023-07-08T04:43:10;100741.19;;;21.83;91.09
33153;BME280;19509;43.862;26.176;2023-07-08T04:45:43;100746.66;;;21.83;90.77
33153;BME280;19509;43.862;26.176;2023-07-08T04:48:16;100751.06;;;21.79;90.65
33153;BME280;19509;43.862;26.176;2023-07-08T04:50:43;100743.41;;;21.81;91.11
33153;BME280;19509;43.862;26.176;2023-07-08T04:53:09;100755.72;;;21.79;91.06
33153;BME280;19509;43.862;26.176;2023-07-08T04:55:42;100762.88;;;21.75;92.02
33153;BME280;19509;43.862;26.176;2023-07-08T04:58:08;100756.59;;;21.69;91.90
33153;BME280;19509;43.862;26.176;2023-07-08T05:00:33;100759.63;;;21.62;91.83
33153;BME280;19509;43.862;26.176;2023-07-08T05:02:59;100760.19;;;21.59;92.12
33153;BME280;19509;43.862;26.176;2023-07-08T05:05:25;100771.69;;;21.61;92.39
33153;BME280;19509;43.862;26.176;2023-07-08T05:07:50;100770.59;;;21.62;93.23
33153;BME280;19509;43.862;26.176;2023-07-08T05:10:16;100775.00;;;21.58;93.50
33153;BME280;19509;43.862;26.176;2023-07-08T05:12:44;100768.44;;;21.54;92.97
33153;BME280;19509;43.862;26.176;2023-07-08T05:15:11;100775.03;;;21.48;93.31
33153;BME280;19509;43.862;26.176;2023-07-08T05:17:37;100773.91;;;21.54;92.94
33153;BME280;19509;43.862;26.176;2023-07-08T05:20:04;100780.75;;;21.52;93.79
33153;BME280;19509;43.862;26.176;2023-07-08T05:22:30;100784.56;;;21.56;92.96
33153;BME280;19509;43.862;26.176;2023-07-08T05:24:56;100786.53;;;21.45;92.39
33153;BME280;19509;43.862;26.176;2023-07-08T05:27:22;100781.03;;;21.55;92.14
33153;BME280;19509;43.862;26.176;2023-07-08T05:29:49;100784.91;;;21.44;94.17
33153;BME280;19509;43.862;26.176;2023-07-08T05:32:15;100783.75;;;21.50;94.45
33153;BME280;19509;43.862;26.176;2023-07-08T05:34:40;100795.28;;;21.57;95.60
33153;BME280;19509;43.862;26.176;2023-07-08T05:37:06;100788.38;;;21.65;93.67
33153;BME280;19509;43.862;26.176;2023-07-08T05:39:32;100795.78;;;21.64;92.53
33153;BME280;19509;43.862;26.176;2023-07-08T05:41:57;100792.50;;;21.67;92.17
33153;BME280;19509;43.862;26.176;2023-07-08T05:44:23;100796.13;;;21.37;91.34
33153;BME280;19509;43.862;26.176;2023-07-08T05:46:49;100808.47;;;21.14;93.09
33153;BME280;19509;43.862;26.176;2023-07-08T05:49:15;100806.00;;;21.18;92.69
33153;BME280;19509;43.862;26.176;2023-07-08T05:51:42;100805.72;;;21.04;94.59
33153;BME280;19509;43.862;26.176;2023-07-08T05:54:08;100816.38;;;21.06;95.75
33153;BME280;19509;43.862;26.176;2023-07-08T05:56:34;100814.22;;;20.97;95.96
33153;BME280;19509;43.862;26.176;2023-07-08T05:58:59;100817.22;;;20.91;96.62
33153;BME280;19509;43.862;26.176;2023-07-08T06:01:25;100818.84;;;20.92;97.35
33153;BME280;19509;43.862;26.176;2023-07-08T06:03:51;100825.97;;;20.62;99.50
33153;BME280;19509;43.862;26.176;2023-07-08T06:06:16;100830.22;;;20.27;100.00
33153;BME280;19509;43.862;26.176;2023-07-08T06:08:42;100820.84;;;20.03;100.00
33153;BME280;19509;43.862;26.176;2023-07-08T06:11:08;100828.25;;;20.07;100.00
33153;BME280;19509;43.862;26.176;2023-07-08T06:13:33;100829.63;;;20.10;100.00
33153;BME280;19509;43.862;26.176;2023-07-08T06:15:59;100836.75;;;20.11;100.00
33153;BME280;19509;43.862;26.176;2023-07-08T06:18:24;100828.78;;;20.04;100.00
33153;BME280;19509;43.862;26.176;2023-07-08T06:20:57;100832.38;;;20.15;100.00
33153;BME280;19509;43.862;26.176;2023-07-08T06:23:23;100832.38;;;20.15;100.00
33153;BME280;19509;43.862;26.176;2023-07-08T06:25:50;100834.59;;;20.18;100.00
33153;BME280;19509;43.862;26.176;2023-07-08T06:28:16;100840.06;;;20.28;100.00
33153;BME280;19509;43.862;26.176;2023-07-08T06:30:41;100825.88;;;20.37;100.00
33153;BME280;19509;43.862;26.176;2023-07-08T06:33:07;100824.53;;;20.39;100.00
33153;BME280;19509;43.862;26.176;2023-07-08T06:35:32;100826.97;;;20.36;100.00
33153;BME280;19509;43.862;26.176;2023-07-08T06:37:58;100818.84;;;20.61;100.00
33153;BME280;19509;43.862;26.176;2023-07-08T06:40:24;100817.47;;;20.64;100.00
33153;BME280;19509;43.862;26.176;2023-07-08T06:42:50;100813.91;;;20.78;98.21
33153;BME280;19509;43.862;26.176;2023-07-08T06:45:16;100812.03;;;20.84;98.21
33153;BME280;19509;43.862;26.176;2023-07-08T06:47:41;100797.50;;;20.89;97.51
33153;BME280;19509;43.862;26.176;2023-07-08T06:50:07;100790.97;;;21.00;97.82
33153;BME280;19509;43.862;26.176;2023-07-08T06:52:33;100778.63;;;21.23;97.68
33153;BME280;19509;43.862;26.176;2023-07-08T06:55:04;100784.06;;;21.33;95.44
33153;BME280;19509;43.862;26.176;2023-07-08T06:57:30;100793.06;;;21.64;93.52
33153;BME280;19509;43.862;26.176;2023-07-08T06:59:56;100794.91;;;21.79;95.76
33153;BME280;19509;43.862;26.176;2023-07-08T07:02:22;100795.56;;;22.10;90.95
33153;BME280;19509;43.862;26.176;2023-07-08T07:04:47;100792.91;;;22.50;89.92
33153;BME280;19509;43.862;26.176;2023-07-08T07:07:13;100808.91;;;22.77;88.82
33153;BME280;19509;43.862;26.176;2023-07-08T07:09:38;100813.25;;;22.78;90.27
33153;BME280;19509;43.862;26.176;2023-07-08T07:12:05;100816.22;;;22.86;89.47
33153;BME280;19509;43.862;26.176;2023-07-08T07:14:32;100818.63;;;22.98;87.54
33153;BME280;19509;43.862;26.176;2023-07-08T07:16:57;100819.22;;;23.24;86.56
33153;BME280;19509;43.862;26.176;2023-07-08T07:19:23;100823.25;;;23.32;85.11
33153;BME280;19509;43.862;26.176;2023-07-08T07:21:48;100819.91;;;23.06;86.88
33153;BME280;19509;43.862;26.176;2023-07-08T07:24:14;100822.91;;;23.09;84.81
33153;BME280;19509;43.862;26.176;2023-07-08T07:26:40;100821.16;;;23.24;85.10
33153;BME280;19509;43.862;26.176;2023-07-08T07:29:05;100831.97;;;23.39;81.03
33153;BME280;19509;43.862;26.176;2023-07-08T07:31:31;100833.22;;;22.88;80.12
33153;BME280;19509;43.862;26.176;2023-07-08T07:34:00;100830.22;;;22.85;85.18
33153;BME280;19509;43.862;26.176;2023-07-08T07:36:27;100826.34;;;23.25;82.07
33153;BME280;19509;43.862;26.176;2023-07-08T07:38:54;100831.81;;;23.25;82.27
33153;BME280;19509;43.862;26.176;2023-07-08T07:41:19;100827.97;;;22.92;84.34
33153;BME280;19509;43.862;26.176;2023-07-08T07:43:45;100839.03;;;23.16;80.14
33153;BME280;19509;43.862;26.176;2023-07-08T07:46:11;100837.19;;;23.65;76.08
33153;BME280;19509;43.862;26.176;2023-07-08T07:48:37;100826.69;;;23.96;75.86
33153;BME280;19509;43.862;26.176;2023-07-08T07:51:03;100825.53;;;24.21;73.04
33153;BME280;19509;43.862;26.176;2023-07-08T07:53:29;100822.34;;;24.33;72.82
33153;BME280;19509;43.862;26.176;2023-07-08T07:56:02;100822.25;;;24.43;72.02
33153;BME280;19509;43.862;26.176;2023-07-08T07:58:29;100813.13;;;24.23;71.20
33153;BME280;19509;43.862;26.176;2023-07-08T08:00:56;100822.69;;;24.50;73.26
33153;BME280;19509;43.862;26.176;2023-07-08T08:03:22;100817.19;;;24.50;74.07
33153;BME280;19509;43.862;26.176;2023-07-08T08:05:48;100815.09;;;24.61;73.49
33153;BME280;19509;43.862;26.176;2023-07-08T08:08:14;100812.50;;;24.50;72.33
33153;BME280;19509;43.862;26.176;2023-07-08T08:10:39;100819.63;;;24.70;71.32
33153;BME280;19509;43.862;26.176;2023-07-08T08:13:05;100812.22;;;24.85;68.37
33153;BME280;19509;43.862;26.176;2023-07-08T08:15:30;100814.09;;;25.03;67.43
33153;BME280;19509;43.862;26.176;2023-07-08T08:17:56;100807.25;;;25.19;67.18
33153;BME280;19509;43.862;26.176;2023-07-08T08:20:24;100821.59;;;24.84;66.61
33153;BME280;19509;43.862;26.176;2023-07-08T08:22:50;100823.63;;;25.11;68.54
33153;BME280;19509;43.862;26.176;2023-07-08T08:25:17;100827.59;;;25.05;64.18
33153;BME280;19509;43.862;26.176;2023-07-08T08:27:43;100833.00;;;25.10;65.05
33153;BME280;19509;43.862;26.176;2023-07-08T08:30:09;100840.56;;;24.85;66.51
33153;BME280;19509;43.862;26.176;2023-07-08T08:32:35;100840.13;;;24.59;67.47
33153;BME280;19509;43.862;26.176;2023-07-08T08:35:01;100832.66;;;24.46;68.86
33153;BME280;19509;43.862;26.176;2023-07-08T08:37:27;100836.13;;;24.51;66.35
33153;BME280;19509;43.862;26.176;2023-07-08T08:39:52;100839.69;;;24.71;69.18
33153;BME280;19509;43.862;26.176;2023-07-08T08:42:28;100843.66;;;24.46;69.07
33153;BME280;19509;43.862;26.176;2023-07-08T08:44:57;100843.75;;;24.17;68.19
33153;BME280;19509;43.862;26.176;2023-07-08T08:47:39;100839.50;;;24.24;69.79
33153;BME280;19509;43.862;26.176;2023-07-08T08:52:46;100849.59;;;24.53;66.42
33153;BME280;19509;43.862;26.176;2023-07-08T08:55:13;100853.97;;;24.11;68.03
33153;BME280;19509;43.862;26.176;2023-07-08T08:58:13;100858.69;;;24.29;66.24
33153;BME280;19509;43.862;26.176;2023-07-08T09:00:56;100853.22;;;24.48;67.90
33153;BME280;19509;43.862;26.176;2023-07-08T09:03:42;100858.56;;;23.97;69.18
33153;BME280;19509;43.862;26.176;2023-07-08T09:06:39;100860.78;;;24.38;68.75
33153;BME280;19509;43.862;26.176;2023-07-08T09:09:23;100859.94;;;24.61;68.94
33153;BME280;19509;43.862;26.176;2023-07-08T09:11:58;100871.75;;;24.43;70.05
33153;BME280;19509;43.862;26.176;2023-07-08T09:14:29;100858.59;;;24.77;71.37
33153;BME280;19509;43.862;26.176;2023-07-08T09:17:11;100870.19;;;25.59;67.57
33153;BME280;19509;43.862;26.176;2023-07-08T09:19:46;100861.41;;;24.72;67.69
33153;BME280;19509;43.862;26.176;2023-07-08T09:22:28;100861.91;;;24.37;70.10
33153;BME280;19509;43.862;26.176;2023-07-08T09:27:42;100867.97;;;24.58;68.07
33153;BME280;19509;43.862;26.176;2023-07-08T09:30:16;100859.78;;;24.71;66.27
33153;BME280;19509;43.862;26.176;2023-07-08T09:32:42;100855.53;;;24.79;63.52
33153;BME280;19509;43.862;26.176;2023-07-08T09:35:09;100852.50;;;25.46;60.36
33153;BME280;19509;43.862;26.176;2023-07-08T09:37:45;100852.81;;;25.44;56.88
33153;BME280;19509;43.862;26.176;2023-07-08T09:40:32;100854.31;;;25.51;56.72
33153;BME280;19509;43.862;26.176;2023-07-08T09:43:16;100856.91;;;25.75;60.21
33153;BME280;19509;43.862;26.176;2023-07-08T09:45:46;100847.88;;;26.38;59.03
33153;BME280;19509;43.862;26.176;2023-07-08T09:48:35;100847.53;;;26.89;54.18
33153;BME280;19509;43.862;26.176;2023-07-08T09:51:02;100853.44;;;26.97;52.84
33153;BME280;19509;43.862;26.176;2023-07-08T09:53:28;100854.66;;;25.77;54.78
33153;BME280;19509;43.862;26.176;2023-07-08T09:55:56;100848.13;;;25.12;59.75
33153;BME280;19509;43.862;26.176;2023-07-08T09:58:29;100857.59;;;24.87;57.53
33153;BME280;19509;43.862;26.176;2023-07-08T10:00:59;100853.13;;;24.72;60.12
33153;BME280;19509;43.862;26.176;2023-07-08T10:03:32;100853.19;;;25.05;59.43
33153;BME280;19509;43.862;26.176;2023-07-08T10:06:03;100851.16;;;25.11;61.66
33153;BME280;19509;43.862;26.176;2023-07-08T10:08:38;100845.63;;;25.30;59.88
33153;BME280;19509;43.862;26.176;2023-07-08T10:11:28;100835.38;;;25.63;59.53
33153;BME280;19509;43.862;26.176;2023-07-08T10:13:56;100830.19;;;26.53;59.15
33153;BME280;19509;43.862;26.176;2023-07-08T10:16:28;100833.84;;;27.29;54.67
33153;BME280;19509;43.862;26.176;2023-07-08T10:18:55;100826.06;;;27.09;57.24
33153;BME280;19509;43.862;26.176;2023-07-08T10:24:29;100831.72;;;24.69;64.91
33153;BME280;19509;43.862;26.176;2023-07-08T10:38:41;100806.47;;;25.74;60.73
33153;BME280;19509;43.862;26.176;2023-07-08T10:41:02;100791.53;;;25.20;59.05
33153;BME280;19509;43.862;26.176;2023-07-08T10:43:55;100794.09;;;25.30;60.02
33153;BME280;19509;43.862;26.176;2023-07-08T10:59:59;100787.69;;;26.04;57.26
33153;BME280;19509;43.862;26.176;2023-07-08T11:03:00;100789.78;;;26.21;56.45
33153;BME280;19509;43.862;26.176;2023-07-08T11:05:45;100793.69;;;26.19;56.14
33153;BME280;19509;43.862;26.176;2023-07-08T11:08:23;100785.03;;;26.49;55.17
33153;BME280;19509;43.862;26.176;2023-07-08T11:10:55;100792.00;;;26.32;55.99
33153;BME280;19509;43.862;26.176;2023-07-08T11:13:23;100789.88;;;26.29;56.08
33153;BME280;19509;43.862;26.176;2023-07-08T11:15:55;100788.22;;;25.78;55.71
33153;BME280;19509;43.862;26.176;2023-07-08T11:18:34;100794.44;;;25.56;54.85
33153;BME280;19509;43.862;26.176;2023-07-08T11:21:06;100794.75;;;25.55;55.23
33153;BME280;19509;43.862;26.176;2023-07-08T11:28:52;100798.31;;;25.55;54.16
33153;BME280;19509;43.862;26.176;2023-07-08T11:31:19;100798.72;;;25.76;54.21
33153;BME280;19509;43.862;26.176;2023-07-08T11:33:46;100793.94;;;25.95;55.62
33153;BME280;19509;43.862;26.176;2023-07-08T11:36:13;100797.78;;;26.58;53.92
33153;BME280;19509;43.862;26.176;2023-07-08T11:38:51;100800.09;;;26.87;53.16
33153;BME280;19509;43.862;26.176;2023-07-08T11:41:20;100789.97;;;27.05;51.23
33153;BME280;19509;43.862;26.176;2023-07-08T11:43:51;100806.44;;;26.88;52.51
33153;BME280;19509;43.862;26.176;2023-07-08T11:46:23;100807.41;;;25.69;58.06
33153;BME280;19509;43.862;26.176;2023-07-08T11:48:54;100805.97;;;24.79;61.40
33153;BME280;19509;43.862;26.176;2023-07-08T11:51:27;100805.31;;;24.30;62.16
33153;BME280;19509;43.862;26.176;2023-07-08T11:54:02;100813.28;;;25.21;60.37
33153;BME280;19509;43.862;26.176;2023-07-08T11:59:20;100809.88;;;26.71;57.50
33153;BME280;19509;43.862;26.176;2023-07-08T12:01:53;100814.09;;;26.69;58.46
33153;BME280;19509;43.862;26.176;2023-07-08T12:04:34;100815.66;;;27.06;57.56
33153;BME280;19509;43.862;26.176;2023-07-08T12:07:10;100799.97;;;26.48;56.71
33153;BME280;19509;43.862;26.176;2023-07-08T12:09:38;100807.81;;;26.04;55.86
33153;BME280;19509;43.862;26.176;2023-07-08T12:12:16;100804.88;;;25.87;54.08
33153;BME280;19509;43.862;26.176;2023-07-08T12:14:44;100807.81;;;26.04;55.99
33153;BME280;19509;43.862;26.176;2023-07-08T12:17:13;100815.16;;;26.45;55.12
33153;BME280;19509;43.862;26.176;2023-07-08T12:19:41;100820.78;;;26.76;49.82
33153;BME280;19509;43.862;26.176;2023-07-08T12:22:09;100816.91;;;26.55;50.26
33153;BME280;19509;43.862;26.176;2023-07-08T12:24:37;100807.47;;;26.56;53.44
33153;BME280;19509;43.862;26.176;2023-07-08T12:27:03;100814.91;;;26.92;49.48
33153;BME280;19509;43.862;26.176;2023-07-08T12:29:28;100818.03;;;26.99;51.41
33153;BME280;19509;43.862;26.176;2023-07-08T12:31:54;100814.22;;;26.63;48.96
33153;BME280;19509;43.862;26.176;2023-07-08T12:34:21;100819.00;;;26.94;52.47
33153;BME280;19509;43.862;26.176;2023-07-08T12:36:49;100814.38;;;27.12;50.91
33153;BME280;19509;43.862;26.176;2023-07-08T12:39:16;100811.97;;;27.42;49.79
33153;BME280;19509;43.862;26.176;2023-07-08T12:41:45;100813.53;;;27.65;48.76
33153;BME280;19509;43.862;26.176;2023-07-08T12:44:20;100815.41;;;27.16;46.27
33153;BME280;19509;43.862;26.176;2023-07-08T12:46:48;100815.91;;;27.49;45.38
33153;BME280;19509;43.862;26.176;2023-07-08T12:49:15;100808.13;;;27.60;44.37
33153;BME280;19509;43.862;26.176;2023-07-08T12:51:43;100803.34;;;27.34;44.23
33153;BME280;19509;43.862;26.176;2023-07-08T12:54:10;100812.75;;;27.11;44.74
33153;BME280;19509;43.862;26.176;2023-07-08T12:56:37;100813.66;;;26.98;45.35
33153;BME280;19509;43.862;26.176;2023-07-08T12:59:04;100820.88;;;27.07;43.38
33153;BME280;19509;43.862;26.176;2023-07-08T13:01:32;100813.22;;;27.67;44.55
33153;BME280;19509;43.862;26.176;2023-07-08T13:04:06;100811.84;;;27.95;43.47
33153;BME280;19509;43.862;26.176;2023-07-08T13:06:35;100823.75;;;27.65;44.69
33153;BME280;19509;43.862;26.176;2023-07-08T13:11:45;100823.94;;;27.28;43.67
33153;BME280;19509;43.862;26.176;2023-07-08T13:14:12;100819.31;;;27.15;40.74
33153;BME280;19509;43.862;26.176;2023-07-08T13:16:39;100814.75;;;27.50;44.23
33153;BME280;19509;43.862;26.176;2023-07-08T13:19:05;100817.06;;;27.97;41.93
33153;BME280;19509;43.862;26.176;2023-07-08T13:21:31;100810.44;;;27.67;42.54
33153;BME280;19509;43.862;26.176;2023-07-08T13:23:58;100811.72;;;28.18;41.42
33153;BME280;19509;43.862;26.176;2023-07-08T13:26:29;100811.59;;;28.23;41.48
33153;BME280;19509;43.862;26.176;2023-07-08T13:29:09;100813.66;;;28.00;41.56
33153;BME280;19509;43.862;26.176;2023-07-08T13:31:38;100804.06;;;28.06;41.99
33153;BME280;19509;43.862;26.176;2023-07-08T13:34:09;100805.31;;;27.82;40.80
33153;BME280;19509;43.862;26.176;2023-07-08T13:36:40;100806.94;;;27.83;41.30
33153;BME280;19509;43.862;26.176;2023-07-08T13:39:12;100811.06;;;27.55;41.94
33153;BME280;19509;43.862;26.176;2023-07-08T13:41:43;100799.59;;;27.39;42.63